Time;durP1;ratioP1;P1;durP2;ratioP2;P2;SDS_P1;SDS_P2;PMS_P1;PMS_P2;Temp;Humidity;BMP_temperature;BMP_pressure;BME280_temperature;BME280_humidity;BME280_pressure;Samples;Min_cycle;Max_cycle;Signal;HPM_P1;HPM_P2
2022/10/17 00:00:40;;;;;;;0.90;0.90;;;16.70;99.90;;;;;;5006939;28;20201;-78
2022/10/17 00:03:07;;;;;;;1.08;1.08;;;16.70;99.90;;;;;;5006761;28;20237;-78
2022/10/17 00:05:34;;;;;;;0.90;0.90;;;16.70;99.90;;;;;;5009758;28;20202;-77
2022/10/17 00:08:01;;;;;;;0.93;0.93;;;16.70;99.90;;;;;;5009483;28;20203;-78
2022/10/17 00:10:29;;;;;;;1.43;1.40;;;16.70;99.90;;;;;;5012645;28;20213;-77
2022/10/17 00:12:56;;;;;;;1.50;1.40;;;16.70;99.90;;;;;;5010278;28;20218;-78
2022/10/17 00:15:24;;;;;;;1.53;1.20;;;16.60;99.90;;;;;;5011204;28;20682;-78
2022/10/17 00:17:51;;;;;;;1.17;1.10;;;16.60;99.90;;;;;;5008131;28;20202;-78
2022/10/17 00:20:19;;;;;;;1.40;1.30;;;16.60;99.90;;;;;;5009580;28;20202;-78
2022/10/17 00:22:46;;;;;;;1.30;1.20;;;16.60;99.90;;;;;;5010805;28;20216;-78
2022/10/17 00:25:13;;;;;;;1.10;1.10;;;16.50;99.90;;;;;;5011345;28;20209;-77
2022/10/17 00:27:41;;;;;;;1.30;1.20;;;16.60;99.90;;;;;;5011353;28;20214;-77
2022/10/17 00:30:12;;;;;;;1.33;1.23;;;16.50;99.90;;;;;;5011192;28;20210;-78
2022/10/17 00:32:41;;;;;;;1.40;1.40;;;16.50;99.90;;;;;;5011803;28;20273;-78
2022/10/17 00:35:09;;;;;;;1.60;1.50;;;16.50;99.90;;;;;;5011361;28;20220;-78
2022/10/17 00:37:37;;;;;;;1.40;1.30;;;16.60;99.90;;;;;;5009777;28;20202;-78
2022/10/17 00:40:05;;;;;;;1.13;1.13;;;16.50;99.90;;;;;;5012872;28;20198;-77
2022/10/17 00:42:32;;;;;;;1.50;1.40;;;16.50;99.90;;;;;;5009891;28;20198;-77
2022/10/17 00:45:05;;;;;;;1.10;1.10;;;16.50;99.90;;;;;;5011567;28;20213;-78
2022/10/17 00:47:35;;;;;;;1.60;1.30;;;16.40;99.90;;;;;;5010158;28;20556;-77
2022/10/17 00:50:06;;;;;;;1.17;1.17;;;16.40;99.90;;;;;;5009934;28;20205;-77
2022/10/17 00:52:34;;;;;;;1.42;1.13;;;16.40;99.90;;;;;;5009506;28;20555;-77
2022/10/17 00:55:06;;;;;;;1.30;1.25;;;16.40;99.90;;;;;;5012118;28;20252;-77
2022/10/17 00:57:33;;;;;;;1.83;1.03;;;16.40;99.90;;;;;;5008219;28;20199;-78
2022/10/17 01:00:02;;;;;;;3.90;1.30;;;16.40;99.90;;;;;;5008387;28;20205;-78
2022/10/17 01:02:29;;;;;;;1.20;1.20;;;16.40;99.90;;;;;;4996603;28;20257;-78
2022/10/17 01:04:59;;;;;;;1.10;1.10;;;16.40;99.90;;;;;;5008894;28;20308;-77
2022/10/17 01:07:29;;;;;;;1.53;1.43;;;16.30;99.90;;;;;;5008919;28;20265;-77
2022/10/17 01:09:56;;;;;;;1.25;1.20;;;16.30;99.90;;;;;;5009382;28;20205;-77
2022/10/17 01:12:26;;;;;;;1.27;1.20;;;16.30;99.90;;;;;;5010744;28;20206;-77
2022/10/17 01:15:11;;;;;;;1.80;1.27;;;16.30;99.90;;;;;;5007557;28;20208;-77
2022/10/17 01:17:51;;;;;;;1.63;1.47;;;16.30;99.90;;;;;;5018099;28;20580;-78
2022/10/17 01:20:59;;;;;;;1.93;1.60;;;16.20;99.90;;;;;;5009457;28;20527;-77
2022/10/17 01:24:02;;;;;;;1.50;1.40;;;16.20;99.90;;;;;;5004553;28;20637;-78
2022/10/17 01:26:44;;;;;;;1.43;1.33;;;16.20;99.90;;;;;;4999078;28;20262;-78
2022/10/17 01:29:36;;;;;;;1.70;1.60;;;16.10;99.90;;;;;;5007419;28;20204;-77
2022/10/17 01:32:15;;;;;;;1.40;1.30;;;16.10;99.90;;;;;;5006686;28;20208;-77
2022/10/17 01:34:47;;;;;;;1.65;1.55;;;16.00;99.90;;;;;;5004799;28;20218;-77
2022/10/17 01:37:20;;;;;;;2.05;1.60;;;16.00;99.90;;;;;;5007435;28;20202;-77
2022/10/17 01:39:52;;;;;;;1.67;1.58;;;16.00;99.90;;;;;;5007637;28;20279;-77
2022/10/17 01:42:25;;;;;;;1.70;1.60;;;16.00;99.90;;;;;;5007036;28;21576;-77
2022/10/17 01:44:57;;;;;;;1.57;1.47;;;15.90;99.90;;;;;;5008589;28;20206;-77
2022/10/17 01:47:29;;;;;;;1.50;1.40;;;15.90;99.90;;;;;;5007375;28;20306;-77
2022/10/17 01:49:59;;;;;;;1.73;1.50;;;15.90;99.90;;;;;;5005064;28;20740;-77
2022/10/17 01:52:30;;;;;;;1.77;1.67;;;15.90;99.90;;;;;;5008565;28;20216;-77
2022/10/17 01:55:03;;;;;;;1.67;1.57;;;15.90;99.90;;;;;;5007465;28;20221;-77
2022/10/17 01:57:35;;;;;;;1.43;1.33;;;15.80;99.90;;;;;;5008522;28;20663;-77
2022/10/17 02:00:06;;;;;;;1.13;1.13;;;15.80;99.90;;;;;;5006338;28;20685;-77
2022/10/17 02:02:43;;;;;;;1.50;1.40;;;15.80;99.90;;;;;;5007886;28;20560;-77
2022/10/17 02:05:11;;;;;;;1.80;1.70;;;15.80;99.90;;;;;;5008406;28;20205;-77
2022/10/17 02:07:40;;;;;;;1.35;1.25;;;15.80;99.90;;;;;;5008802;28;20217;-78
2022/10/17 02:10:16;;;;;;;1.60;1.50;;;15.80;99.90;;;;;;5004689;28;20661;-77
2022/10/17 02:12:53;;;;;;;1.40;1.30;;;15.80;99.90;;;;;;5006511;28;20204;-78
2022/10/17 02:15:38;;;;;;;2.10;1.80;;;15.80;99.90;;;;;;5005920;28;20696;-77
2022/10/17 02:18:21;;;;;;;2.17;2.07;;;15.80;99.90;;;;;;5004350;28;20191;-77
2022/10/17 02:20:54;;;;;;;2.27;1.83;;;15.70;99.90;;;;;;5008472;28;20204;-77
2022/10/17 02:23:27;;;;;;;2.20;2.00;;;15.60;99.90;;;;;;5003849;28;20213;-77
2022/10/17 02:26:06;;;;;;;1.80;1.70;;;15.60;99.90;;;;;;5006573;28;20195;-77
2022/10/17 02:28:44;;;;;;;1.40;1.30;;;15.60;99.90;;;;;;5004290;28;20287;-77
2022/10/17 02:31:15;;;;;;;1.10;1.10;;;15.60;99.90;;;;;;5009912;28;20186;-77
2022/10/17 02:33:50;;;;;;;1.50;1.40;;;15.60;99.90;;;;;;5003850;28;20204;-77
2022/10/17 02:36:22;;;;;;;2.27;1.37;;;15.60;99.90;;;;;;5007333;28;20195;-78
2022/10/17 02:38:51;;;;;;;2.43;1.30;;;15.60;99.90;;;;;;5004715;28;20199;-78
2022/10/17 02:41:20;;;;;;;2.40;1.30;;;15.60;99.90;;;;;;5006952;28;20198;-78
2022/10/17 02:43:48;;;;;;;1.60;1.50;;;15.60;99.90;;;;;;5006983;28;20201;-77
2022/10/17 02:46:20;;;;;;;3.30;2.17;;;15.50;99.90;;;;;;5005238;28;20197;-78
2022/10/17 02:48:52;;;;;;;4.60;2.53;;;15.50;99.90;;;;;;5006069;28;20286;-77
2022/10/17 02:51:29;;;;;;;2.33;2.13;;;15.50;99.90;;;;;;5006776;28;20247;-78
2022/10/17 02:54:05;;;;;;;2.40;2.20;;;15.50;99.90;;;;;;5003916;28;20854;-77
2022/10/17 02:56:41;;;;;;;2.20;2.00;;;15.50;99.90;;;;;;5023538;28;20194;-77
2022/10/17 02:59:12;;;;;;;1.60;1.50;;;15.50;99.90;;;;;;5005374;28;20282;-77
2022/10/17 03:01:39;;;;;;;1.53;1.43;;;15.50;99.90;;;;;;5005863;28;20664;-78
2022/10/17 03:04:10;;;;;;;1.87;1.60;;;15.50;99.90;;;;;;5007206;28;20256;-78
2022/10/17 03:06:38;;;;;;;1.57;1.47;;;15.40;99.90;;;;;;5007210;28;20196;-78
2022/10/17 03:09:05;;;;;;;1.47;1.37;;;15.40;99.90;;;;;;5006136;28;20699;-78
2022/10/17 03:11:33;;;;;;;1.93;1.83;;;15.40;99.90;;;;;;5004584;28;20242;-78
2022/10/17 03:14:00;;;;;;;2.10;1.90;;;15.40;99.90;;;;;;5005224;28;20202;-78
2022/10/17 03:16:29;;;;;;;2.10;1.90;;;15.40;99.90;;;;;;5004864;28;20199;-77
2022/10/17 03:18:56;;;;;;;1.70;1.60;;;15.30;99.90;;;;;;5005955;28;20207;-78
2022/10/17 03:21:25;;;;;;;2.40;2.20;;;15.30;99.90;;;;;;5004445;28;20294;-78
2022/10/17 03:23:52;;;;;;;3.67;2.40;;;15.30;99.90;;;;;;5005476;28;20187;-77
2022/10/17 03:26:22;;;;;;;3.10;2.37;;;15.30;99.90;;;;;;5006520;28;20206;-78
2022/10/17 03:28:49;;;;;;;4.07;2.80;;;15.30;99.90;;;;;;5003037;28;20224;-77
2022/10/17 03:31:17;;;;;;;2.53;2.33;;;15.30;99.90;;;;;;5011333;28;20200;-77
2022/10/17 03:33:46;;;;;;;2.77;2.30;;;15.30;99.90;;;;;;5012885;28;20195;-77
2022/10/17 03:36:15;;;;;;;2.50;2.30;;;15.20;99.90;;;;;;5032014;28;20262;-78
2022/10/17 03:38:44;;;;;;;1.97;1.87;;;15.20;99.90;;;;;;5026279;28;20279;-78
2022/10/17 03:41:12;;;;;;;2.20;2.00;;;15.20;99.90;;;;;;5019817;28;20223;-77
2022/10/17 03:43:40;;;;;;;1.93;1.70;;;15.20;99.90;;;;;;5005780;28;20258;-77
2022/10/17 03:46:08;;;;;;;2.00;1.80;;;15.20;99.90;;;;;;5006151;28;20207;-78
2022/10/17 03:48:36;;;;;;;1.83;1.73;;;15.10;99.90;;;;;;5004672;28;20720;-78
2022/10/17 03:51:07;;;;;;;1.77;1.67;;;15.10;99.90;;;;;;5005317;28;20563;-77
2022/10/17 03:53:38;;;;;;;2.00;1.90;;;15.20;99.90;;;;;;5005220;28;20238;-77
2022/10/17 03:56:12;;;;;;;2.10;1.90;;;15.20;99.90;;;;;;5005362;28;20686;-78
2022/10/17 03:58:40;;;;;;;2.63;2.00;;;15.20;99.90;;;;;;5005386;28;20663;-77
2022/10/17 04:01:09;;;;;;;3.43;2.10;;;15.10;99.90;;;;;;5006295;28;20302;-77
2022/10/17 04:03:38;;;;;;;2.10;1.90;;;15.10;99.90;;;;;;5003826;28;20234;-78
2022/10/17 04:06:06;;;;;;;4.37;3.07;;;15.10;99.90;;;;;;5005939;28;20207;-78
2022/10/17 04:08:35;;;;;;;4.10;2.90;;;15.10;99.90;;;;;;5004853;28;20238;-77
2022/10/17 04:11:15;;;;;;;3.57;2.70;;;15.10;99.90;;;;;;5007416;28;20629;-78
2022/10/17 04:13:43;;;;;;;5.10;3.27;;;15.10;99.90;;;;;;5005070;28;20219;-78
2022/10/17 04:16:14;;;;;;;3.13;2.83;;;15.00;99.90;;;;;;5006367;28;20235;-78
2022/10/17 04:18:54;;;;;;;7.40;4.43;;;15.00;99.90;;;;;;5004024;28;20199;-77
2022/10/17 04:21:23;;;;;;;6.03;4.30;;;15.10;99.90;;;;;;5005938;28;20278;-78
2022/10/17 04:23:54;;;;;;;5.53;4.60;;;15.00;99.90;;;;;;5005019;28;20257;-77
2022/10/17 04:26:35;;;;;;;4.60;3.43;;;15.00;99.90;;;;;;5005794;28;20195;-77
2022/10/17 04:29:03;;;;;;;3.27;2.97;;;14.90;99.90;;;;;;5005230;28;20207;-77
2022/10/17 04:31:31;;;;;;;3.50;3.00;;;14.90;99.90;;;;;;5006032;28;20191;-77
2022/10/17 04:34:19;;;;;;;3.10;2.90;;;14.90;99.90;;;;;;5003076;28;20316;-77
2022/10/17 04:36:47;;;;;;;4.57;3.10;;;14.90;99.90;;;;;;5003763;28;20203;-77
2022/10/17 04:39:14;;;;;;;2.83;2.63;;;14.80;99.90;;;;;;5003705;28;20187;-77
2022/10/17 04:41:43;;;;;;;2.70;2.37;;;14.80;99.90;;;;;;5006302;28;20208;-78
2022/10/17 04:44:11;;;;;;;3.20;3.00;;;14.90;99.90;;;;;;5004120;28;20191;-77
2022/10/17 04:46:42;;;;;;;6.07;5.10;;;14.90;99.90;;;;;;5005196;28;20226;-77
2022/10/17 04:49:09;;;;;;;5.97;4.00;;;14.90;99.90;;;;;;5005418;28;20207;-78
2022/10/17 04:51:39;;;;;;;5.53;3.57;;;14.90;99.90;;;;;;5024185;28;20195;-78
2022/10/17 04:54:16;;;;;;;3.30;2.80;;;14.90;99.90;;;;;;5004908;28;20258;-78
2022/10/17 04:56:48;;;;;;;2.70;2.50;;;14.90;99.90;;;;;;5009351;28;20663;-78
2022/10/17 04:59:15;;;;;;;2.10;2.00;;;14.90;99.90;;;;;;5007656;28;20215;-78
2022/10/17 05:01:49;;;;;;;2.00;1.90;;;14.90;99.90;;;;;;5008595;28;20687;-77
2022/10/17 05:04:19;;;;;;;1.87;1.77;;;14.90;99.90;;;;;;5007588;28;20231;-77
2022/10/17 05:06:46;;;;;;;1.63;1.53;;;14.90;99.90;;;;;;5010531;28;20372;-77
2022/10/17 05:09:31;;;;;;;1.70;1.60;;;15.00;99.90;;;;;;5006442;28;20191;-77
2022/10/17 05:11:59;;;;;;;1.70;1.60;;;14.90;99.90;;;;;;5009929;28;20202;-78
2022/10/17 05:14:28;;;;;;;1.40;1.30;;;15.00;99.90;;;;;;5008834;28;20199;-78
2022/10/17 05:16:55;;;;;;;1.80;1.70;;;15.00;99.90;;;;;;5011042;28;20740;-77
2022/10/17 05:19:22;;;;;;;3.23;2.93;;;15.00;99.90;;;;;;5008717;28;20187;-77
2022/10/17 05:21:51;;;;;;;2.63;1.93;;;14.90;99.90;;;;;;5009411;28;20210;-77
2022/10/17 05:24:18;;;;;;;1.97;1.87;;;14.90;99.90;;;;;;5008367;28;20211;-77
2022/10/17 05:26:45;;;;;;;1.87;1.70;;;15.00;99.90;;;;;;5012276;28;20195;-77
2022/10/17 05:29:14;;;;;;;1.63;1.53;;;14.90;99.90;;;;;;5007516;28;20203;-78
2022/10/17 05:31:46;;;;;;;1.50;1.40;;;15.00;99.90;;;;;;5008848;28;20207;-78
2022/10/17 05:34:13;;;;;;;2.03;1.80;;;15.00;99.90;;;;;;5008848;28;20231;-77
2022/10/17 05:36:41;;;;;;;2.60;1.53;;;15.00;99.90;;;;;;5009510;28;20205;-78
2022/10/17 05:39:09;;;;;;;1.67;1.57;;;15.00;99.90;;;;;;5005861;28;20196;-78
2022/10/17 05:41:37;;;;;;;1.40;1.30;;;15.00;99.90;;;;;;5009369;28;20206;-78
2022/10/17 05:44:05;;;;;;;1.57;1.47;;;15.00;99.90;;;;;;5009750;28;20199;-76
2022/10/17 05:46:42;;;;;;;3.13;1.40;;;15.10;99.90;;;;;;5008704;28;20202;-77
2022/10/17 05:49:10;;;;;;;1.70;1.60;;;15.00;99.90;;;;;;5007268;28;20227;-76
2022/10/17 05:51:38;;;;;;;2.40;1.57;;;15.10;99.90;;;;;;5005892;28;20199;-77
2022/10/17 05:54:06;;;;;;;1.90;1.70;;;15.00;99.90;;;;;;5007105;28;20286;-77
2022/10/17 05:56:34;;;;;;;1.80;1.70;;;15.00;99.90;;;;;;5008948;28;20294;-76
2022/10/17 05:59:02;;;;;;;2.63;1.50;;;15.10;99.90;;;;;;5007361;28;20191;-77
2022/10/17 06:01:43;;;;;;;1.77;1.63;;;15.10;99.90;;;;;;5009687;28;20265;-76
2022/10/17 06:04:11;;;;;;;1.40;1.30;;;15.10;99.90;;;;;;5007316;28;20579;-76
2022/10/17 06:06:39;;;;;;;1.30;1.20;;;15.10;99.90;;;;;;5007587;28;20256;-76
2022/10/17 06:09:07;;;;;;;1.30;1.20;;;15.10;99.90;;;;;;5002846;28;20305;-76
2022/10/17 06:11:38;;;;;;;3.03;2.60;;;15.10;99.90;;;;;;5005516;28;20195;-76
2022/10/17 06:14:07;;;;;;;7.27;3.40;;;15.10;99.90;;;;;;5005817;28;20667;-76
2022/10/17 06:16:35;;;;;;;5.33;3.33;;;15.10;99.90;;;;;;5007753;28;20204;-76
2022/10/17 06:19:04;;;;;;;6.37;2.90;;;15.00;99.90;;;;;;5005938;28;20357;-76
2022/10/17 06:21:35;;;;;;;3.00;2.70;;;15.10;99.90;;;;;;5007772;28;20203;-76
2022/10/17 06:24:12;;;;;;;6.43;3.80;;;15.10;99.90;;;;;;5005913;28;20214;-76
2022/10/17 06:26:42;;;;;;;6.07;4.00;;;15.00;99.90;;;;;;5008159;28;20206;-76
2022/10/17 06:29:11;;;;;;;7.93;4.63;;;15.00;99.90;;;;;;5006085;28;20741;-77
2022/10/17 06:31:44;;;;;;;5.47;3.73;;;14.90;99.90;;;;;;5007478;28;20203;-77
2022/10/17 06:34:12;;;;;;;4.83;4.07;;;15.00;99.90;;;;;;5005284;28;20613;-77
2022/10/17 06:36:40;;;;;;;3.90;3.50;;;14.90;99.90;;;;;;5007245;28;20361;-76
2022/10/17 06:39:09;;;;;;;5.53;3.60;;;14.90;99.90;;;;;;5005958;28;20655;-76
2022/10/17 06:41:43;;;;;;;3.20;3.00;;;14.90;99.90;;;;;;5007552;28;20290;-76
2022/10/17 06:44:10;;;;;;;3.37;3.07;;;14.90;99.90;;;;;;5007508;28;20204;-77
2022/10/17 06:47:10;;;;;;;3.30;3.00;;;15.00;99.90;;;;;;4983428;28;20572;-77
2022/10/17 06:49:39;;;;;;;3.73;2.90;;;15.00;99.90;;;;;;5006559;28;20207;-77
2022/10/17 06:52:24;;;;;;;4.87;2.87;;;15.00;99.90;;;;;;5007218;28;20199;-78
2022/10/17 06:55:12;;;;;;;4.30;3.47;;;15.10;99.90;;;;;;4992324;28;20261;-77
2022/10/17 06:57:55;;;;;;;5.67;3.80;;;15.10;99.90;;;;;;5008734;28;20223;-77
2022/10/17 07:00:43;;;;;;;5.40;3.80;;;15.10;99.90;;;;;;5006534;28;20571;-78
2022/10/17 07:03:12;;;;;;;8.70;4.40;;;15.10;99.90;;;;;;5005893;28;20238;-77
2022/10/17 07:05:41;;;;;;;11.03;4.67;;;15.10;99.90;;;;;;5006053;28;20545;-78
2022/10/17 07:08:08;;;;;;;8.73;4.93;;;15.10;99.90;;;;;;5003841;28;20299;-77
2022/10/17 07:10:38;;;;;;;11.50;4.47;;;15.10;99.90;;;;;;5005384;28;20222;-78
2022/10/17 07:13:07;;;;;;;6.83;3.87;;;15.10;99.90;;;;;;5003647;28;20207;-78
2022/10/17 07:15:37;;;;;;;4.13;3.23;;;15.10;99.90;;;;;;5003602;28;20202;-77
2022/10/17 07:18:04;;;;;;;3.83;3.50;;;15.20;99.90;;;;;;5002595;28;20726;-78
2022/10/17 07:20:32;;;;;;;4.17;3.53;;;15.20;99.90;;;;;;5007343;28;20211;-77
2022/10/17 07:23:00;;;;;;;8.03;4.20;;;15.20;99.90;;;;;;5007094;28;20555;-77
2022/10/17 07:25:28;;;;;;;4.90;3.23;;;15.20;99.90;;;;;;5007345;28;20199;-76
2022/10/17 07:28:01;;;;;;;4.73;3.23;;;15.20;99.90;;;;;;5003253;28;20303;-76
2022/10/17 07:30:29;;;;;;;2.63;2.43;;;15.20;99.90;;;;;;5004679;28;20261;-76
2022/10/17 07:33:07;;;;;;;2.73;2.50;;;15.30;99.90;;;;;;5002628;28;20262;-76
2022/10/17 07:35:35;;;;;;;5.17;3.10;;;15.30;99.90;;;;;;5006582;28;20291;-76
2022/10/17 07:38:03;;;;;;;4.43;2.67;;;15.40;99.90;;;;;;5005786;28;20310;-76
2022/10/17 07:40:30;;;;;;;3.80;2.80;;;15.40;99.90;;;;;;5004518;28;20196;-76
2022/10/17 07:42:58;;;;;;;4.93;2.30;;;15.40;99.90;;;;;;5005976;28;20646;-77
2022/10/17 07:45:26;;;;;;;4.83;3.17;;;15.50;99.90;;;;;;5001796;28;20663;-76
2022/10/17 07:47:56;;;;;;;5.80;3.43;;;15.50;99.90;;;;;;5003257;28;20294;-77
2022/10/17 07:50:23;;;;;;;6.17;3.40;;;15.50;99.90;;;;;;5004956;28;20281;-77
2022/10/17 07:52:51;;;;;;;3.97;2.90;;;15.60;99.90;;;;;;5007331;28;20659;-76
2022/10/17 07:55:19;;;;;;;6.33;3.53;;;15.60;99.90;;;;;;5007253;28;20536;-76
2022/10/17 07:57:46;;;;;;;5.40;3.37;;;15.60;99.90;;;;;;5004027;28;20195;-76
2022/10/17 08:00:14;;;;;;;5.00;3.20;;;15.60;99.90;;;;;;5007807;28;20202;-77
2022/10/17 08:02:41;;;;;;;5.00;3.50;;;15.60;99.90;;;;;;5006967;28;20227;-76
2022/10/17 08:05:09;;;;;;;6.07;4.07;;;15.70;99.90;;;;;;5009547;28;20199;-76
2022/10/17 08:07:36;;;;;;;5.77;3.80;;;15.70;99.90;;;;;;5011222;28;20195;-77
2022/10/17 08:10:04;;;;;;;8.30;4.43;;;15.80;99.90;;;;;;5029531;28;20220;-76
2022/10/17 08:12:33;;;;;;;20.83;4.57;;;15.70;99.90;;;;;;5032498;28;20218;-76
2022/10/17 08:15:00;;;;;;;28.00;5.67;;;15.70;99.90;;;;;;5022663;28;20219;-76
2022/10/17 08:17:28;;;;;;;16.87;5.63;;;15.70;99.90;;;;;;5006258;28;20615;-77
2022/10/17 08:19:55;;;;;;;7.37;3.90;;;15.70;99.90;;;;;;5006741;28;20548;-77
2022/10/17 08:22:22;;;;;;;5.23;3.30;;;15.70;99.90;;;;;;5007614;28;20627;-76
2022/10/17 08:24:49;;;;;;;5.10;3.53;;;15.80;99.90;;;;;;5006176;28;20663;-77
2022/10/17 08:27:22;;;;;;;5.60;3.63;;;15.80;99.90;;;;;;5013599;28;20683;-77
2022/10/17 08:29:52;;;;;;;7.80;3.90;;;15.80;99.90;;;;;;5008630;28;20218;-76
2022/10/17 08:32:20;;;;;;;5.57;3.50;;;15.90;99.90;;;;;;5009483;28;20305;-76
2022/10/17 08:34:47;;;;;;;3.60;3.30;;;16.00;99.90;;;;;;5010200;28;20994;-76
2022/10/17 08:37:14;;;;;;;4.93;3.33;;;16.00;99.90;;;;;;5010413;28;20571;-76
2022/10/17 08:39:41;;;;;;;5.13;3.70;;;16.10;99.90;;;;;;5008355;28;20199;-76
2022/10/17 08:42:30;;;;;;;4.27;3.30;;;16.10;99.90;;;;;;5010537;28;20652;-76
2022/10/17 08:45:11;;;;;;;4.17;3.40;;;16.20;99.90;;;;;;5005880;28;20549;-76
2022/10/17 08:47:40;;;;;;;3.57;3.10;;;16.30;99.90;;;;;;5009145;28;20520;-76
2022/10/17 08:50:14;;;;;;;6.23;3.70;;;16.30;99.90;;;;;;5010638;28;20220;-76
2022/10/17 08:52:46;;;;;;;3.63;2.93;;;16.40;99.90;;;;;;5010140;28;20288;-76
2022/10/17 08:55:16;;;;;;;2.83;2.57;;;16.50;99.90;;;;;;5009144;28;20201;-76
2022/10/17 08:57:43;;;;;;;2.70;1.93;;;16.50;99.90;;;;;;5010860;28;20208;-77
2022/10/17 09:00:17;;;;;;;2.07;1.87;;;16.60;99.90;;;;;;5009500;28;20205;-77
2022/10/17 09:02:57;;;;;;;1.60;1.50;;;16.70;99.90;;;;;;5008107;28;20738;-77
2022/10/17 09:05:41;;;;;;;2.00;1.47;;;16.70;99.90;;;;;;5009522;28;20193;-77
2022/10/17 09:08:28;;;;;;;4.13;1.90;;;16.70;99.90;;;;;;5004631;28;20209;-77
2022/10/17 09:11:00;;;;;;;5.47;2.50;;;16.70;99.90;;;;;;5011002;28;20299;-77
2022/10/17 09:13:46;;;;;;;7.87;2.50;;;16.80;99.90;;;;;;5008327;28;20567;-77
2022/10/17 09:16:29;;;;;;;4.87;2.60;;;16.80;99.90;;;;;;5010675;28;20213;-77
2022/10/17 09:19:03;;;;;;;3.37;2.80;;;16.80;99.90;;;;;;5007422;28;20189;-77
2022/10/17 09:21:42;;;;;;;5.20;2.80;;;16.70;99.90;;;;;;5009845;28;20202;-76
2022/10/17 09:24:15;;;;;;;5.43;3.33;;;16.70;99.90;;;;;;5009270;28;20247;-76
2022/10/17 09:26:44;;;;;;;3.23;2.93;;;16.80;99.90;;;;;;5008694;28;20276;-76
2022/10/17 09:29:18;;;;;;;4.40;3.33;;;16.80;99.90;;;;;;5009017;28;20210;-76
2022/10/17 09:31:54;;;;;;;4.00;3.07;;;16.80;99.90;;;;;;5009275;28;20287;-76
2022/10/17 09:34:22;;;;;;;7.27;4.77;;;16.80;99.90;;;;;;5006998;28;20574;-76
2022/10/17 09:36:49;;;;;;;4.30;3.90;;;16.80;99.90;;;;;;5007567;28;20297;-76
2022/10/17 09:39:19;;;;;;;7.33;3.67;;;16.80;99.90;;;;;;5007192;28;20676;-76
2022/10/17 09:41:50;;;;;;;4.80;4.27;;;16.80;99.90;;;;;;5010310;28;20201;-76
2022/10/17 09:44:23;;;;;;;5.47;4.43;;;16.90;99.90;;;;;;5007624;28;20200;-76
2022/10/17 09:47:11;;;;;;;7.27;4.90;;;16.90;99.90;;;;;;5007969;28;20734;-76
2022/10/17 09:49:40;;;;;;;5.37;4.10;;;17.00;99.90;;;;;;5009143;28;20209;-77
2022/10/17 09:52:12;;;;;;;4.73;3.90;;;17.10;99.90;;;;;;5009358;28;20206;-77
2022/10/17 09:54:45;;;;;;;4.03;3.67;;;17.20;99.90;;;;;;5008921;28;20217;-77
2022/10/17 09:57:14;;;;;;;4.03;3.30;;;17.30;99.90;;;;;;5007905;28;20186;-76
2022/10/17 09:59:44;;;;;;;6.30;4.43;;;17.40;99.90;;;;;;5001723;28;20190;-76
2022/10/17 10:02:19;;;;;;;4.30;3.50;;;17.50;99.90;;;;;;5007807;28;20228;-78
2022/10/17 10:04:58;;;;;;;3.10;2.78;;;17.70;99.90;;;;;;5006172;28;20194;-77
2022/10/17 10:07:28;;;;;;;4.22;3.65;;;18.00;99.90;;;;;;5007950;28;20191;-77
2022/10/17 10:09:55;;;;;;;7.60;4.00;;;18.20;99.90;;;;;;5005413;28;20211;-77
2022/10/17 10:12:25;;;;;;;4.27;3.90;;;18.20;99.90;;;;;;5009179;28;20191;-79
2022/10/17 10:14:53;;;;;;;7.55;4.47;;;18.10;99.90;;;;;;5008794;28;20206;-78
2022/10/17 10:17:38;;;;;;;8.80;4.40;;;18.00;99.90;;;;;;5007461;28;20199;-78
2022/10/17 10:20:28;;;;;;;4.68;4.18;;;18.00;99.90;;;;;;5009274;28;20282;-79
2022/10/17 10:23:08;;;;;;;5.22;3.88;;;17.80;99.90;;;;;;5003272;28;20307;-77
2022/10/17 10:25:36;;;;;;;6.07;4.47;;;17.80;99.90;;;;;;5006510;28;20202;-79
2022/10/17 10:28:10;;;;;;;3.95;3.65;;;17.90;99.90;;;;;;5007126;28;20235;-78
2022/10/17 10:30:38;;;;;;;3.70;3.35;;;17.90;99.90;;;;;;5006840;28;20233;-77
2022/10/17 10:33:10;;;;;;;3.67;2.80;;;17.90;99.90;;;;;;5023169;28;20386;-77
2022/10/17 10:35:38;;;;;;;16.98;4.63;;;17.90;99.90;;;;;;5013218;28;20663;-77
2022/10/17 10:38:13;;;;;;;7.28;4.25;;;17.80;99.90;;;;;;5034005;28;20291;-77
2022/10/17 10:40:47;;;;;;;7.05;4.20;;;17.80;99.90;;;;;;5010375;28;20214;-77
2022/10/17 10:43:24;;;;;;;7.60;4.45;;;17.80;99.90;;;;;;5006460;28;20274;-77
2022/10/17 10:45:52;;;;;;;5.47;4.20;;;17.80;99.90;;;;;;5005320;28;20214;-77
2022/10/17 10:48:22;;;;;;;6.28;4.20;;;17.80;99.90;;;;;;5007994;28;20221;-78
2022/10/17 10:50:52;;;;;;;5.07;4.57;;;17.80;99.90;;;;;;5006595;28;20210;-78
2022/10/17 10:53:32;;;;;;;5.28;4.25;;;17.90;99.90;;;;;;5002829;28;20203;-75
2022/10/17 10:56:04;;;;;;;4.15;3.75;;;18.00;99.90;;;;;;5008376;28;20217;-75
2022/10/17 10:58:41;;;;;;;4.15;3.75;;;18.00;99.90;;;;;;5004331;28;20233;-75
2022/10/17 11:01:15;;;;;;;3.58;3.28;;;18.10;99.90;;;;;;5023949;28;20199;-74
2022/10/17 11:04:06;;;;;;;7.85;4.57;;;18.20;99.90;;;;;;5007458;28;20242;-74
2022/10/17 11:06:37;;;;;;;4.10;3.70;;;18.30;99.90;;;;;;5008968;28;20245;-74
2022/10/17 11:09:19;;;;;;;6.00;5.10;;;18.30;99.90;;;;;;5007885;28;20203;-74
2022/10/17 11:12:01;;;;;;;6.00;3.50;;;18.40;99.90;;;;;;5008927;28;20199;-74
2022/10/17 11:14:38;;;;;;;4.35;3.80;;;18.40;99.90;;;;;;5006686;28;20214;-74
2022/10/17 11:17:12;;;;;;;7.03;4.50;;;18.40;99.90;;;;;;5008259;28;20595;-74
2022/10/17 11:19:45;;;;;;;5.95;5.10;;;18.40;99.90;;;;;;5003990;28;20227;-73
2022/10/17 11:22:16;;;;;;;5.97;5.28;;;18.40;99.90;;;;;;5021470;28;20234;-74
2022/10/17 11:24:55;;;;;;;7.38;5.60;;;18.40;99.90;;;;;;5005703;28;20191;-74
2022/10/17 11:27:23;;;;;;;3.42;3.13;;;18.30;99.90;;;;;;5004931;28;20219;-72
2022/10/17 11:29:50;;;;;;;2.78;2.58;;;18.30;99.90;;;;;;5004147;28;20223;-72
2022/10/17 11:32:25;;;;;;;3.60;3.25;;;18.30;99.90;;;;;;5008453;28;20200;-72
2022/10/17 11:34:58;;;;;;;5.60;3.60;;;18.40;99.90;;;;;;5008146;28;20642;-72
2022/10/17 11:37:29;;;;;;;8.10;4.70;;;18.50;99.90;;;;;;5007680;28;20191;-72
2022/10/17 11:40:02;;;;;;;5.57;4.38;;;18.50;99.90;;;;;;5007872;28;20218;-72
2022/10/17 11:42:34;;;;;;;6.20;4.40;;;18.60;99.90;;;;;;5008408;28;20883;-72
2022/10/17 11:45:05;;;;;;;5.18;4.43;;;18.70;99.90;;;;;;5005505;28;20202;-71
2022/10/17 11:47:39;;;;;;;4.25;3.38;;;18.80;99.90;;;;;;5006100;28;20294;-71
2022/10/17 11:50:20;;;;;;;8.45;5.75;;;18.80;99.90;;;;;;5007894;28;20199;-72
2022/10/17 11:52:52;;;;;;;4.25;3.85;;;18.90;99.90;;;;;;5005715;28;20199;-72
2022/10/17 11:55:22;;;;;;;4.43;3.30;;;18.90;99.90;;;;;;5008248;28;20187;-72
2022/10/17 11:57:59;;;;;;;5.93;4.25;;;19.00;99.90;;;;;;5007343;28;20549;-72
2022/10/17 12:00:37;;;;;;;3.55;3.25;;;19.10;99.90;;;;;;5003823;28;20193;-71
2022/10/17 12:03:17;;;;;;;3.60;3.30;;;19.10;99.90;;;;;;5009743;28;20231;-71
2022/10/17 12:05:50;;;;;;;6.20;3.95;;;19.10;99.90;;;;;;5008487;28;20198;-71
2022/10/17 12:08:25;;;;;;;4.00;3.38;;;19.20;99.90;;;;;;5009321;28;20274;-72
2022/10/17 12:10:58;;;;;;;6.13;5.10;;;19.10;99.90;;;;;;5011623;28;20630;-72
2022/10/17 12:13:51;;;;;;;7.20;4.95;;;19.20;99.90;;;;;;5010678;28;20187;-71
2022/10/17 12:16:49;;;;;;;6.30;5.05;;;19.20;99.90;;;;;;5011404;28;20667;-72
2022/10/17 12:19:35;;;;;;;3.97;3.58;;;19.20;99.90;;;;;;5006821;28;20194;-71
2022/10/17 12:22:19;;;;;;;4.25;3.85;;;19.20;99.90;;;;;;5011156;28;20927;-72
2022/10/17 12:24:55;;;;;;;5.68;4.47;;;19.30;99.90;;;;;;5009970;28;20598;-72
2022/10/17 12:27:45;;;;;;;5.07;4.03;;;19.30;99.90;;;;;;5009210;28;20524;-72
2022/10/17 12:30:30;;;;;;;4.32;3.50;;;19.30;99.90;;;;;;5010957;28;20206;-72
2022/10/17 12:33:04;;;;;;;5.53;4.68;;;19.30;99.90;;;;;;5011267;28;20191;-72
2022/10/17 12:35:33;;;;;;;9.10;6.10;;;19.40;99.90;;;;;;5009202;28;20195;-71
2022/10/17 12:38:24;;;;;;;10.75;7.05;;;19.50;99.90;;;;;;5009152;28;20199;-71
2022/10/17 12:40:54;;;;;;;6.68;4.80;;;19.50;99.90;;;;;;5011566;28;20187;-72
2022/10/17 12:43:50;;;;;;;6.13;4.70;;;19.50;99.90;;;;;;5010120;28;20207;-72
2022/10/17 12:46:43;;;;;;;8.90;5.63;;;19.60;99.90;;;;;;5008382;28;20195;-72
2022/10/17 12:49:44;;;;;;;11.52;6.15;;;19.50;99.90;;;;;;5003660;28;20261;-72
2022/10/17 12:52:26;;;;;;;5.80;5.18;;;19.60;99.90;;;;;;5009089;28;20195;-71
2022/10/17 12:55:11;;;;;;;7.68;5.65;;;19.50;99.90;;;;;;5008084;28;20204;-75
2022/10/17 12:57:44;;;;;;;6.88;5.53;;;19.50;99.90;;;;;;5010081;28;20278;-72
2022/10/17 13:00:19;;;;;;;7.22;5.70;;;19.50;99.90;;;;;;5010812;28;20187;-72
2022/10/17 13:02:47;;;;;;;7.22;4.97;;;19.50;99.90;;;;;;5009730;28;20242;-72
2022/10/17 13:05:19;;;;;;;8.77;6.32;;;19.50;99.90;;;;;;5008734;28;20203;-72
2022/10/17 13:07:48;;;;;;;8.77;5.95;;;19.50;99.90;;;;;;5007254;28;20191;-73
2022/10/17 13:10:23;;;;;;;8.82;5.88;;;19.50;99.90;;;;;;5008163;28;20219;-72
2022/10/17 13:12:53;;;;;;;6.82;5.93;;;19.40;99.90;;;;;;5007413;28;20202;-72